Time;durP1;ratioP1;P1;durP2;ratioP2;P2;SDS_P1;SDS_P2;PMS_P1;PMS_P2;Temp;Humidity;BMP_temperature;BMP_pressure;BME280_temperature;BME280_humidity;BME280_pressure;Samples;Min_cycle;Max_cycle;Signal;HPM_P1;HPM_P2
2022/03/30 00:00:48;;;;;;;59.30;34.58;;;;;;;3.26;79.27;99751.72;4912801;29;20040;-70
2022/03/30 00:03:14;;;;;;;50.08;29.77;;;;;;;3.25;79.73;99750.84;4914859;29;20119;-71
2022/03/30 00:05:40;;;;;;;49.78;30.38;;;;;;;3.26;80.11;99749.09;4911418;29;20468;-70
2022/03/30 00:08:06;;;;;;;61.75;35.33;;;;;;;3.18;81.13;99750.75;4915256;29;20574;-70
2022/03/30 00:10:32;;;;;;;47.00;29.80;;;;;;;3.14;80.53;99746.34;4915165;29;20032;-70
2022/03/30 00:12:58;;;;;;;51.80;29.65;;;;;;;3.13;81.26;99744.59;4914879;29;20039;-70
2022/03/30 00:15:24;;;;;;;57.72;32.75;;;;;;;3.16;81.85;99745.50;4911446;29;20403;-69
2022/03/30 00:17:49;;;;;;;51.85;30.83;;;;;;;3.20;81.61;99742.09;4914656;29;20337;-70
2022/03/30 00:20:15;;;;;;;51.25;31.73;;;;;;;3.20;81.99;99738.63;4915095;29;20095;-70
2022/03/30 00:22:40;;;;;;;53.83;32.00;;;;;;;3.19;81.83;99742.06;4914848;29;20043;-70
2022/03/30 00:25:11;;;;;;;53.38;31.65;;;;;;;3.18;82.21;99740.31;4914510;29;20024;-71
2022/03/30 00:27:38;;;;;;;57.92;31.75;;;;;;;3.20;82.30;99738.63;4914960;29;20074;-70
2022/03/30 00:30:05;;;;;;;53.17;32.83;;;;;;;3.20;82.00;99728.19;4915059;29;20716;-69
2022/03/30 00:32:31;;;;;;;53.13;30.52;;;;;;;3.19;81.85;99734.22;4911079;29;20091;-70
2022/03/30 00:34:56;;;;;;;59.42;30.42;;;;;;;3.20;81.54;99729.06;4910826;29;20040;-70
2022/03/30 00:37:22;;;;;;;49.97;28.95;;;;;;;3.22;81.66;99726.44;4914872;29;20064;-70
2022/03/30 00:39:47;;;;;;;49.75;32.55;;;;;;;3.21;81.33;99725.56;4914857;29;20040;-70
2022/03/30 00:42:14;;;;;;;53.33;31.42;;;;;;;3.21;81.17;99724.69;4910931;29;20068;-71
2022/03/30 00:44:39;;;;;;;47.55;28.15;;;;;;;3.12;80.86;99721.97;4910976;29;20104;-71
2022/03/30 00:47:12;;;;;;;50.38;30.88;;;;;;;3.08;80.85;99721.94;4914851;29;20036;-71
2022/03/30 00:49:37;;;;;;;;;;;;;;;3.04;81.53;99725.41;4915039;29;20076;-71
2022/03/30 00:52:03;;;;;;;51.92;29.42;;;;;;;3.04;81.68;99725.41;4918714;29;19915;-71
2022/03/30 00:54:28;;;;;;;49.05;28.88;;;;;;;3.01;81.45;99720.16;4916964;29;20036;-70
2022/03/30 00:56:54;;;;;;;47.53;28.55;;;;;;;2.99;81.06;99715.78;4914766;29;20479;-70
2022/03/30 00:59:19;;;;;;;51.30;29.15;;;;;;;2.93;81.54;99721.78;4911083;29;20055;-70
2022/03/30 01:01:45;;;;;;;52.58;27.92;;;;;;;2.88;81.51;99707.81;4912953;29;20460;-70
2022/03/30 01:04:10;;;;;;;50.00;30.05;;;;;;;2.88;81.42;99713.03;4912656;29;20135;-69
2022/03/30 01:06:35;;;;;;;49.42;28.15;;;;;;;2.87;81.64;99716.50;4914572;29;20044;-70
2022/03/30 01:09:02;;;;;;;46.10;27.40;;;;;;;2.90;81.68;99710.44;4914597;29;20040;-70
2022/03/30 01:11:28;;;;;;;48.83;27.15;;;;;;;2.93;81.19;99710.47;4910710;29;20048;-70
2022/03/30 01:13:54;;;;;;;45.45;26.25;;;;;;;2.97;80.98;99713.16;4912482;29;20405;-70
2022/03/30 01:16:20;;;;;;;48.33;29.13;;;;;;;2.93;80.00;99713.97;4910891;29;20032;-70
2022/03/30 01:18:46;;;;;;;45.40;28.15;;;;;;;2.89;79.76;99714.78;4914435;29;20040;-71
2022/03/30 01:21:11;;;;;;;43.53;26.83;;;;;;;2.80;80.06;99706.84;4914135;29;20096;-70
2022/03/30 01:23:37;;;;;;;50.42;28.73;;;;;;;2.74;80.14;99704.19;4914433;29;20403;-70
2022/03/30 01:26:06;;;;;;;52.58;28.90;;;;;;;2.73;80.40;99705.06;4914614;29;20487;-71
2022/03/30 01:28:32;;;;;;;46.53;28.38;;;;;;;2.61;80.17;99703.16;4914429;29;20068;-71
2022/03/30 01:33:47;;;;;;;49.05;27.83;;;;;;;2.48;80.05;99703.84;4911259;29;20051;-71
2022/03/30 01:36:15;;;;;;;46.53;27.13;;;;;;;2.44;80.28;99707.25;4909492;29;20032;-71
2022/03/30 01:38:43;;;;;;;47.20;28.33;;;;;;;2.35;80.40;99698.47;4914245;29;20091;-70
2022/03/30 01:41:08;;;;;;;50.58;28.30;;;;;;;2.36;80.43;99691.56;4913808;29;20075;-71
2022/03/30 01:43:33;;;;;;;45.25;27.52;;;;;;;2.37;80.72;99695.91;4913806;29;20460;-70
2022/03/30 01:45:59;;;;;;;42.83;25.80;;;;;;;2.32;79.92;99687.16;4912376;29;20037;-71
2022/03/30 01:48:24;;;;;;;49.22;29.35;;;;;;;2.23;79.80;99689.59;4917849;29;20096;-71
2022/03/30 01:50:49;;;;;;;48.13;28.63;;;;;;;2.12;80.69;99682.56;4913942;29;20031;-68
2022/03/30 01:53:15;;;;;;;55.28;31.95;;;;;;;2.10;80.56;99689.47;4915531;29;20126;-69
2022/03/30 01:55:40;;;;;;;56.78;31.88;;;;;;;2.09;80.35;99679.88;4917767;29;20096;-71
2022/03/30 01:58:06;;;;;;;50.15;29.25;;;;;;;2.07;80.44;99679.00;4915870;29;20067;-70
2022/03/30 02:00:31;;;;;;;52.58;30.30;;;;;;;2.08;79.96;99685.94;4911082;29;20131;-70
2022/03/30 02:02:56;;;;;;;50.42;28.08;;;;;;;2.02;79.90;99684.97;4916236;29;20036;-71
2022/03/30 02:05:22;;;;;;;51.05;28.95;;;;;;;1.99;80.16;99678.00;4913756;29;20066;-71
2022/03/30 02:07:48;;;;;;;49.08;28.42;;;;;;;1.95;80.42;99678.81;4914999;29;20044;-71
2022/03/30 02:10:14;;;;;;;46.95;28.55;;;;;;;1.91;79.87;99677.91;4915200;29;20111;-70
2022/03/30 02:12:40;;;;;;;51.55;30.13;;;;;;;1.86;79.92;99679.56;4916199;29;20044;-70
2022/03/30 02:15:06;;;;;;;45.92;27.20;;;;;;;1.77;78.06;99673.34;4917400;29;20032;-70
2022/03/30 02:17:32;;;;;;;52.92;29.52;;;;;;;1.67;78.50;99673.19;4917326;29;20043;-71
2022/03/30 02:19:58;;;;;;;49.80;26.88;;;;;;;1.62;78.64;99677.44;4918439;29;20091;-69
2022/03/30 02:22:23;;;;;;;48.90;27.45;;;;;;;1.56;79.00;99679.06;4914931;29;20036;-70
2022/03/30 02:24:50;;;;;;;37.97;24.42;;;;;;;1.49;81.04;99667.69;4917214;29;20122;-70
2022/03/30 02:27:15;;;;;;;37.17;22.08;;;;;;;1.45;82.25;99665.91;4913614;29;20087;-70
2022/03/30 02:29:41;;;;;;;43.90;24.35;;;;;;;1.38;83.11;99666.63;4916556;29;20028;-71
2022/03/30 02:32:06;;;;;;;42.53;26.17;;;;;;;1.34;82.98;99670.91;4915335;29;20083;-70
2022/03/30 02:34:32;;;;;;;37.85;22.27;;;;;;;1.38;81.51;99667.50;4916359;29;20028;-69
2022/03/30 02:36:57;;;;;;;36.80;20.77;;;;;;;1.34;80.99;99667.41;4915229;29;20043;-70
2022/03/30 02:39:22;;;;;;;40.72;23.10;;;;;;;1.28;80.84;99669.09;4916890;29;20040;-70
2022/03/30 02:41:48;;;;;;;51.65;28.83;;;;;;;1.25;81.84;99658.63;4913476;29;20070;-70
2022/03/30 02:44:13;;;;;;;41.53;24.90;;;;;;;1.28;82.42;99657.78;4963253;23;20063;-71
2022/03/30 02:46:39;;;;;;;42.75;25.05;;;;;;;1.29;82.04;99650.03;4912878;29;20040;-71
2022/03/30 02:49:04;;;;;;;41.50;23.80;;;;;;;1.31;81.76;99656.13;4912299;29;20081;-71
2022/03/30 02:51:31;;;;;;;38.00;22.60;;;;;;;1.33;81.84;99650.09;4914809;29;20384;-72
2022/03/30 02:53:56;;;;;;;38.78;23.83;;;;;;;1.36;81.75;99647.53;4912999;29;20035;-71
2022/03/30 02:56:21;;;;;;;42.25;23.95;;;;;;;1.39;81.57;99655.38;4913017;29;20032;-71
2022/03/30 02:58:47;;;;;;;47.28;25.80;;;;;;;1.37;81.88;99651.91;4915764;29;20040;-71
2022/03/30 03:01:12;;;;;;;45.80;25.58;;;;;;;1.29;81.95;99650.03;4913286;29;20072;-71
2022/03/30 03:03:38;;;;;;;45.13;25.38;;;;;;;1.30;82.13;99651.78;4915731;29;20036;-71
2022/03/30 03:06:03;;;;;;;45.28;25.10;;;;;;;1.31;81.50;99653.53;4916464;29;20039;-71
2022/03/30 03:08:28;;;;;;;43.20;22.85;;;;;;;1.26;81.77;99655.19;4910424;29;20048;-71
2022/03/30 03:10:54;;;;;;;41.63;24.88;;;;;;;1.29;81.65;99654.38;4914523;29;20112;-72
2022/03/30 03:13:19;;;;;;;39.00;23.23;;;;;;;1.38;81.34;99651.03;4916009;29;20154;-71
2022/03/30 03:15:46;;;;;;;47.28;25.08;;;;;;;1.43;81.97;99646.78;4911109;29;20079;-71
2022/03/30 03:18:13;;;;;;;46.70;24.52;;;;;;;1.49;81.39;99649.47;4916272;29;20036;-72
2022/03/30 03:20:41;;;;;;;39.25;23.67;;;;;;;1.53;81.68;99649.56;4913663;29;20036;-71
2022/03/30 03:23:06;;;;;;;51.25;28.05;;;;;;;1.58;81.67;99647.03;4909412;29;20040;-71
2022/03/30 03:25:33;;;;;;;51.42;27.15;;;;;;;1.62;82.33;99642.75;4906470;29;20035;-72
2022/03/30 03:28:00;;;;;;;49.20;27.08;;;;;;;1.66;82.12;99645.44;4912023;29;20040;-71
2022/03/30 03:30:25;;;;;;;43.00;26.10;;;;;;;1.74;81.44;99643.81;4911629;29;20038;-71
2022/03/30 03:32:51;;;;;;;49.95;26.58;;;;;;;1.77;82.06;99649.91;4911442;29;20036;-73
2022/03/30 03:35:17;;;;;;;45.88;24.77;;;;;;;1.81;82.49;99650.00;4911456;29;20092;-73
2022/03/30 03:37:43;;;;;;;54.40;28.80;;;;;;;1.89;82.23;99643.19;4912070;29;20044;-73
2022/03/30 03:40:09;;;;;;;44.47;24.77;;;;;;;1.97;81.69;99645.88;4915500;29;20040;-73
2022/03/30 03:42:36;;;;;;;47.65;26.20;;;;;;;2.09;81.37;99653.84;4912475;29;20032;-73
2022/03/30 03:45:03;;;;;;;40.90;24.67;;;;;;;2.25;80.88;99648.84;4912983;29;20051;-73
2022/03/30 03:47:28;;;;;;;41.35;24.95;;;;;;;2.35;80.67;99648.13;4914494;29;20103;-73
2022/03/30 03:49:53;;;;;;;46.25;25.73;;;;;;;2.40;80.89;99649.06;4914336;29;20444;-73
2022/03/30 03:52:19;;;;;;;45.38;26.75;;;;;;;2.42;81.05;99640.41;4914605;29;20495;-73
2022/03/30 03:54:44;;;;;;;47.30;25.85;;;;;;;2.57;80.54;99633.66;4915008;29;20040;-73
2022/03/30 03:57:09;;;;;;;46.05;27.13;;;;;;;2.60;79.67;99631.94;4912997;29;20073;-74
2022/03/30 03:59:38;;;;;;;57.15;29.63;;;;;;;2.61;79.38;99636.28;4913590;29;20096;-74
2022/03/30 04:02:04;;;;;;;59.05;28.65;;;;;;;2.69;79.69;99631.16;4911125;29;20503;-73
2022/03/30 04:04:30;;;;;;;61.80;28.02;;;;;;;2.75;79.65;99640.78;4910760;29;20032;-73
2022/03/30 04:06:56;;;;;;;68.18;26.95;;;;;;;2.89;79.18;99631.41;4911537;29;20123;-73
2022/03/30 04:09:21;;;;;;;58.63;25.63;;;;;;;2.82;78.13;99634.78;4915221;29;20551;-73
2022/03/30 04:11:47;;;;;;;49.03;24.40;;;;;;;2.67;77.71;99635.47;4912558;29;20044;-73
2022/03/30 04:14:15;;;;;;;45.53;24.63;;;;;;;2.51;78.87;99637.03;4914216;29;20122;-73
2022/03/30 04:16:41;;;;;;;49.65;25.23;;;;;;;2.49;79.02;99630.97;4914072;29;20408;-73
2022/03/30 04:19:06;;;;;;;63.22;26.38;;;;;;;2.51;78.40;99637.03;4915195;29;20127;-73
2022/03/30 04:21:32;;;;;;;46.70;24.98;;;;;;;2.52;78.37;99631.00;4910311;29;20118;-73
2022/03/30 04:23:57;;;;;;;55.67;27.85;;;;;;;2.51;78.42;99644.84;4914825;29;20050;-73
2022/03/30 04:26:22;;;;;;;46.00;24.58;;;;;;;2.50;78.96;99637.91;4914931;29;20047;-73
2022/03/30 04:28:48;;;;;;;49.92;26.58;;;;;;;2.51;79.04;99638.78;4912876;29;20123;-74
2022/03/30 04:31:13;;;;;;;46.13;25.58;;;;;;;2.55;78.98;99628.41;4910200;29;20068;-73
2022/03/30 04:33:39;;;;;;;40.08;24.13;;;;;;;2.66;79.09;99628.53;4913634;29;20127;-73
2022/03/30 04:36:05;;;;;;;47.05;25.33;;;;;;;2.74;78.64;99623.41;4920448;29;20064;-73
2022/03/30 04:38:31;;;;;;;43.65;23.98;;;;;;;2.74;78.24;99628.63;4913836;29;20120;-73
2022/03/30 04:40:56;;;;;;;44.53;25.20;;;;;;;2.74;77.72;99637.31;4906273;29;20031;-73
2022/03/30 04:43:21;;;;;;;52.10;29.65;;;;;;;2.73;78.43;99637.31;4909595;29;20115;-73
2022/03/30 04:45:47;;;;;;;44.92;26.80;;;;;;;2.74;78.21;99633.84;4914806;29;20032;-74
2022/03/30 04:48:12;;;;;;;61.78;34.03;;;;;;;2.76;78.69;99629.53;4914872;29;20160;-74
2022/03/30 04:50:37;;;;;;;55.13;32.58;;;;;;;2.85;78.50;99625.25;4913750;29;20048;-74
2022/03/30 04:53:03;;;;;;;64.90;33.83;;;;;;;2.90;78.32;99633.13;4914639;29;20036;-74
2022/03/30 04:55:28;;;;;;;60.50;32.28;;;;;;;3.03;77.70;99629.78;4910241;29;20032;-74
2022/03/30 04:57:54;;;;;;;50.90;29.60;;;;;;;3.12;77.58;99622.91;4914048;29;20518;-74
2022/03/30 05:00:19;;;;;;;53.38;29.27;;;;;;;3.11;77.62;99621.19;4908590;29;20593;-73
2022/03/30 05:02:44;;;;;;;54.47;31.77;;;;;;;3.16;77.59;99622.97;4909434;29;20056;-73
2022/03/30 05:05:10;;;;;;;50.47;30.73;;;;;;;3.11;76.79;99615.97;4904542;29;20445;-73
2022/03/30 05:07:36;;;;;;;48.92;28.95;;;;;;;3.07;77.00;99615.94;4904079;29;20083;-73
2022/03/30 05:10:05;;;;;;;52.75;30.00;;;;;;;3.07;76.27;99615.94;4905701;29;20522;-73
2022/03/30 05:12:31;;;;;;;51.03;29.25;;;;;;;3.06;76.47;99608.09;4910672;29;20103;-73
2022/03/30 05:14:56;;;;;;;53.15;30.63;;;;;;;2.99;76.68;99607.16;4912645;29;20028;-74
2022/03/30 05:17:21;;;;;;;49.17;27.33;;;;;;;2.95;77.07;99614.94;4914532;29;20048;-73
2022/03/30 05:19:48;;;;;;;45.25;26.98;;;;;;;2.91;77.27;99619.25;4914726;29;20135;-73
2022/03/30 05:22:13;;;;;;;46.10;24.88;;;;;;;2.97;77.38;99614.09;4916727;29;20048;-74
2022/03/30 05:24:39;;;;;;;44.03;25.25;;;;;;;3.02;76.92;99612.41;4918370;29;20047;-73
2022/03/30 05:27:04;;;;;;;42.00;25.38;;;;;;;3.06;76.90;99622.00;4918407;29;20115;-73
2022/03/30 05:29:30;;;;;;;42.08;25.13;;;;;;;3.10;77.33;99630.72;4916451;29;20059;-73
2022/03/30 05:31:55;;;;;;;37.47;24.25;;;;;;;3.20;76.90;99621.28;4917753;29;20044;-74
2022/03/30 05:34:21;;;;;;;36.60;22.15;;;;;;;3.28;76.03;99617.00;4918366;29;20050;-73
2022/03/30 05:36:46;;;;;;;44.50;22.08;;;;;;;3.27;75.70;99620.44;4915156;29;20043;-73
2022/03/30 05:39:12;;;;;;;40.72;23.95;;;;;;;3.21;75.61;99620.41;4914895;29;20448;-73
2022/03/30 05:41:38;;;;;;;35.92;19.17;;;;;;;3.16;75.90;99614.28;4917529;29;20040;-73
2022/03/30 05:44:04;;;;;;;33.03;19.42;;;;;;;3.21;75.63;99623.00;4917839;29;20566;-73
2022/03/30 05:46:29;;;;;;;30.25;18.40;;;;;;;3.30;76.01;99615.25;4917656;29;20036;-73
2022/03/30 05:48:54;;;;;;;33.67;19.75;;;;;;;3.42;75.48;99617.97;4917912;29;20128;-73
2022/03/30 05:51:20;;;;;;;27.90;15.85;;;;;;;3.55;74.97;99623.28;4917656;29;20040;-73
2022/03/30 05:53:45;;;;;;;26.20;14.02;;;;;;;3.64;73.70;99619.03;4917766;29;20048;-73
2022/03/30 05:56:11;;;;;;;23.08;12.88;;;;;;;3.69;73.11;99621.63;4916398;29;20029;-73
2022/03/30 05:58:37;;;;;;;27.30;11.95;;;;;;;3.72;72.37;99616.44;4917500;29;20058;-73
2022/03/30 06:01:03;;;;;;;25.15;11.20;;;;;;;3.77;72.38;99619.94;4917362;29;20040;-73
2022/03/30 06:03:29;;;;;;;23.77;11.23;;;;;;;3.86;72.26;99617.41;4917564;29;20040;-73
2022/03/30 06:05:54;;;;;;;18.75;9.80;;;;;;;4.02;71.89;99609.69;4917095;29;20396;-73
2022/03/30 06:08:19;;;;;;;22.63;11.18;;;;;;;4.14;71.01;99607.16;4916823;29;20084;-73
2022/03/30 06:10:45;;;;;;;27.23;13.38;;;;;;;4.26;71.22;99612.41;4913883;29;20646;-73
2022/03/30 06:13:10;;;;;;;31.45;16.38;;;;;;;4.33;70.91;99601.13;4914555;29;20067;-73
2022/03/30 06:15:37;;;;;;;32.90;16.65;;;;;;;4.49;70.85;99607.28;4917378;29;20135;-73
2022/03/30 06:18:05;;;;;;;28.38;14.32;;;;;;;4.54;69.79;99609.91;4917086;29;20044;-73
2022/03/30 06:20:31;;;;;;;21.73;10.15;;;;;;;4.61;69.24;99607.34;4914125;29;20028;-73
2022/03/30 06:22:56;;;;;;;16.92;9.98;;;;;;;4.64;68.60;99622.16;4915769;29;20087;-73
2022/03/30 06:25:25;;;;;;;17.98;8.98;;;;;;;4.70;68.02;99621.28;4913817;29;20403;-73
2022/03/30 06:27:51;;;;;;;16.90;9.52;;;;;;;4.76;67.63;99627.41;4916646;29;20507;-73
2022/03/30 06:30:17;;;;;;;19.23;10.50;;;;;;;4.87;68.37;99623.94;4917401;29;20443;-73
2022/03/30 06:32:43;;;;;;;19.73;11.05;;;;;;;4.97;68.14;99617.88;4915490;29;20079;-73
2022/03/30 06:35:09;;;;;;;23.73;12.57;;;;;;;5.12;67.94;99615.28;4916922;29;20036;-73
2022/03/30 06:37:34;;;;;;;23.73;11.80;;;;;;;5.30;67.71;99616.19;4917021;29;20036;-73
2022/03/30 06:39:59;;;;;;;25.73;13.95;;;;;;;5.44;66.55;99617.03;4913543;29;20087;-73
2022/03/30 06:42:25;;;;;;;23.90;10.93;;;;;;;5.47;66.10;99620.50;4916617;29;20044;-73
2022/03/30 06:44:50;;;;;;;20.42;9.75;;;;;;;5.51;65.82;99616.19;4919571;29;20080;-73
2022/03/30 06:47:16;;;;;;;19.42;9.48;;;;;;;5.39;65.59;99611.78;4916909;29;20048;-73
2022/03/30 06:49:41;;;;;;;19.63;10.70;;;;;;;5.35;64.75;99617.06;4916780;29;20566;-73
2022/03/30 06:52:08;;;;;;;24.45;12.00;;;;;;;5.38;65.54;99619.66;4916649;29;20075;-73
2022/03/30 06:54:35;;;;;;;21.42;9.95;;;;;;;5.44;65.02;99611.81;4916781;29;20070;-73
2022/03/30 06:57:02;;;;;;;18.77;11.18;;;;;;;5.55;65.33;99610.03;4914845;29;20096;-73
2022/03/30 06:59:27;;;;;;;26.92;15.95;;;;;;;5.64;65.77;99615.28;4912938;29;20503;-73
2022/03/30 07:01:54;;;;;;;26.73;15.00;;;;;;;5.67;65.32;99612.66;4916355;29;20040;-73
2022/03/30 07:04:20;;;;;;;23.48;14.18;;;;;;;5.80;65.31;99612.66;4915306;29;20054;-73
2022/03/30 07:12:13;;;;;;;26.73;16.52;;;;;;;6.17;65.08;99600.38;4913430;29;20095;-73
2022/03/30 07:14:38;;;;;;;25.85;15.13;;;;;;;6.26;65.17;99605.59;4915307;29;20055;-73
2022/03/30 07:17:04;;;;;;;29.15;16.95;;;;;;;6.27;65.69;99601.22;4915538;29;20028;-73
2022/03/30 07:19:29;;;;;;;24.92;15.13;;;;;;;6.30;65.27;99601.22;4916449;29;20079;-73
2022/03/30 07:21:54;;;;;;;26.67;15.35;;;;;;;6.47;65.55;99596.78;4914857;29;20035;-73
2022/03/30 07:24:20;;;;;;;28.83;16.52;;;;;;;6.71;64.88;99592.28;4915977;29;20095;-73
2022/03/30 07:26:45;;;;;;;29.48;15.43;;;;;;;6.93;64.00;99587.78;4915903;29;20047;-73
2022/03/30 07:29:10;;;;;;;25.02;13.45;;;;;;;6.99;63.60;99588.59;4916008;29;20118;-73
2022/03/30 07:31:36;;;;;;;23.85;13.10;;;;;;;6.89;63.47;99586.03;4915905;29;20044;-73
2022/03/30 07:34:01;;;;;;;20.45;13.00;;;;;;;6.97;64.61;99579.88;4914843;29;20104;-73
2022/03/30 07:36:26;;;;;;;27.15;14.70;;;;;;;7.12;64.27;99591.13;4914637;29;20040;-73
2022/03/30 07:38:52;;;;;;;23.17;12.85;;;;;;;7.23;63.51;99590.19;4914247;29;20044;-73
2022/03/30 07:41:17;;;;;;;22.67;11.77;;;;;;;7.37;63.70;99590.06;4915499;29;20115;-74
2022/03/30 07:43:43;;;;;;;23.13;13.95;;;;;;;7.46;62.98;99584.72;4913852;29;20083;-73
2022/03/30 07:46:11;;;;;;;27.65;13.80;;;;;;;7.57;62.59;99597.78;4914390;29;20060;-73
2022/03/30 07:48:37;;;;;;;25.60;14.68;;;;;;;7.63;62.16;99591.63;4915220;29;20403;-73
2022/03/30 07:51:02;;;;;;;28.08;15.70;;;;;;;7.80;61.71;99587.03;4914906;29;20046;-73
2022/03/30 07:53:28;;;;;;;25.30;13.77;;;;;;;8.09;61.26;99585.88;4915040;29;20043;-73
2022/03/30 07:55:55;;;;;;;23.10;12.63;;;;;;;8.36;60.16;99587.31;4915139;29;20043;-73
2022/03/30 07:58:21;;;;;;;24.17;13.63;;;;;;;8.55;58.47;99590.63;4915407;29;20096;-73
2022/03/30 08:00:47;;;;;;;19.27;10.50;;;;;;;8.41;57.54;99588.19;4915391;29;20044;-74
2022/03/30 08:03:12;;;;;;;22.17;11.57;;;;;;;8.61;57.76;99579.16;4915160;29;20427;-74
2022/03/30 08:05:38;;;;;;;19.85;9.55;;;;;;;8.86;56.79;99571.78;4915569;29;20051;-73
2022/03/30 08:08:06;;;;;;;19.08;9.68;;;;;;;9.02;55.55;99568.03;4915472;29;20087;-73
2022/03/30 08:10:33;;;;;;;17.80;9.57;;;;;;;9.24;56.34;99572.97;4915426;29;20035;-73
2022/03/30 08:12:58;;;;;;;21.83;9.32;;;;;;;9.58;55.79;99582.03;4910891;29;20036;-73
2022/03/30 08:15:24;;;;;;;26.88;12.13;;;;;;;9.85;54.18;99577.16;4915351;29;20063;-73
2022/03/30 08:17:51;;;;;;;24.23;10.85;;;;;;;9.85;51.97;99571.88;4915472;29;20407;-73
2022/03/30 08:23:03;;;;;;;24.15;13.43;;;;;;;10.32;52.80;99567.50;4915888;29;20043;-73
2022/03/30 08:25:29;;;;;;;23.58;12.68;;;;;;;10.53;52.06;99555.63;4908495;29;20029;-73
2022/03/30 08:27:54;;;;;;;18.60;10.20;;;;;;;10.67;52.03;99550.06;4915179;29;20048;-73
2022/03/30 08:30:20;;;;;;;18.67;9.65;;;;;;;10.88;51.13;99554.84;4915212;29;20072;-73
2022/03/30 08:32:45;;;;;;;19.67;10.35;;;;;;;11.01;51.13;99549.31;4922042;29;20119;-73
2022/03/30 08:35:12;;;;;;;19.02;10.05;;;;;;;11.16;50.27;99544.50;4915117;29;20035;-73
2022/03/30 08:37:38;;;;;;;19.67;9.15;;;;;;;11.27;49.45;99543.38;4915056;29;20047;-74
2022/03/30 08:40:04;;;;;;;18.70;9.30;;;;;;;11.22;49.13;99540.84;4915182;29;20044;-73
2022/03/30 08:42:30;;;;;;;15.30;9.05;;;;;;;11.24;49.19;99536.41;4910698;29;20040;-74
2022/03/30 08:44:55;;;;;;;23.85;10.75;;;;;;;11.43;49.61;99541.22;4937383;23;20047;-73
2022/03/30 08:47:20;;;;;;;19.35;9.63;;;;;;;11.56;49.43;99534.72;4934005;29;20052;-73
2022/03/30 08:49:50;;;;;;;14.68;8.30;;;;;;;11.55;48.30;99539.16;4934086;29;20043;-73
2022/03/30 08:52:16;;;;;;;18.55;9.20;;;;;;;11.38;48.48;99536.91;4933787;29;20040;-73
2022/03/30 08:54:49;;;;;;;15.25;7.93;;;;;;;11.48;47.50;99534.06;4934301;29;20418;-73
2022/03/30 08:57:15;;;;;;;16.17;8.68;;;;;;;11.57;47.33;99528.50;4935648;29;20090;-73
2022/03/30 09:00:02;;;;;;;13.68;7.70;;;;;;;11.65;46.60;99531.81;4937669;29;20123;-74
2022/03/30 09:02:42;;;;;;;17.35;8.55;;;;;;;11.65;46.31;99530.97;4936353;29;20104;-73
2022/03/30 09:05:19;;;;;;;14.60;7.20;;;;;;;11.63;45.96;99523.06;4935608;29;20402;-71
2022/03/30 09:07:48;;;;;;;19.33;8.35;;;;;;;11.69;46.66;99520.28;4934234;29;20446;-71
2022/03/30 09:10:15;;;;;;;17.45;8.15;;;;;;;11.76;46.61;99521.84;4937685;29;20036;-71
2022/03/30 09:12:42;;;;;;;18.75;8.23;;;;;;;11.85;46.40;99511.00;4936223;29;20055;-71
2022/03/30 09:15:08;;;;;;;14.10;6.93;;;;;;;12.09;45.11;99513.91;4937374;29;20553;-71
2022/03/30 09:17:38;;;;;;;16.23;5.97;;;;;;;12.31;45.53;99505.34;4936807;29;20119;-70
2022/03/30 09:20:05;;;;;;;10.48;5.30;;;;;;;12.46;43.40;99499.59;4937633;29;20706;-71
2022/03/30 09:22:32;;;;;;;10.25;4.53;;;;;;;12.62;43.98;99500.84;4937227;29;20044;-71
2022/03/30 09:24:57;;;;;;;10.32;4.57;;;;;;;12.75;43.08;99500.47;4935511;29;20060;-71
2022/03/30 09:27:24;;;;;;;13.00;5.35;;;;;;;12.82;42.68;99502.03;4931922;29;20051;-71
2022/03/30 09:29:50;;;;;;;12.73;5.57;;;;;;;13.00;42.91;99501.44;4936826;28;20059;-71
2022/03/30 09:32:15;;;;;;;12.70;5.28;;;;;;;12.89;41.29;99499.13;4936891;29;20495;-71
2022/03/30 09:34:49;;;;;;;13.32;6.07;;;;;;;12.98;40.98;99497.97;4936894;29;20050;-71
2022/03/30 09:37:15;;;;;;;14.32;6.30;;;;;;;13.18;41.26;99493.78;4937042;29;20122;-70
2022/03/30 09:39:42;;;;;;;18.90;7.40;;;;;;;13.42;41.07;99492.13;4936939;29;20051;-70
2022/03/30 09:42:08;;;;;;;19.73;8.27;;;;;;;13.43;40.27;99489.41;4932067;29;20052;-71
2022/03/30 09:44:53;;;;;;;14.98;6.35;;;;;;;13.52;38.77;99490.91;4938676;29;20040;-71
2022/03/30 09:47:20;;;;;;;12.88;6.20;;;;;;;13.53;40.54;99493.47;4933870;29;20431;-71
2022/03/30 09:49:48;;;;;;;10.68;4.78;;;;;;;13.49;39.97;99488.34;4936581;29;20170;-70
2022/03/30 09:52:17;;;;;;;12.70;5.07;;;;;;;13.44;38.65;99487.63;4936554;29;20047;-71
2022/03/30 09:54:47;;;;;;;11.85;4.78;;;;;;;13.54;39.52;99476.66;4934876;29;20055;-71
2022/03/30 09:57:42;;;;;;;12.23;6.05;;;;;;;13.61;39.08;99487.06;4936708;29;20041;-70
2022/03/30 10:00:09;;;;;;;13.45;5.22;;;;;;;13.78;39.87;99487.31;4933248;29;20052;-71
2022/03/30 10:02:46;;;;;;;13.15;4.43;;;;;;;13.72;38.12;99476.94;4933326;29;20142;-71
2022/03/30 10:05:14;;;;;;;15.88;5.13;;;;;;;13.62;38.51;99475.53;4935773;29;20035;-71
2022/03/30 10:07:40;;;;;;;12.20;4.15;;;;;;;13.59;37.98;99468.53;4936142;29;20043;-71
2022/03/30 10:10:08;;;;;;;12.50;4.85;;;;;;;13.49;38.90;99470.66;4936584;29;20046;-71
2022/03/30 10:12:34;;;;;;;14.13;5.10;;;;;;;13.47;39.19;99477.81;4930451;29;20039;-71
2022/03/30 10:15:00;;;;;;;12.00;4.65;;;;;;;13.35;38.71;99470.28;4936027;29;20451;-71
2022/03/30 10:17:26;;;;;;;12.90;4.85;;;;;;;13.52;39.36;99473.22;4936248;29;20036;-70
2022/03/30 10:19:55;;;;;;;17.15;6.20;;;;;;;13.78;39.04;99466.09;4935318;29;20035;-71
2022/03/30 10:22:38;;;;;;;18.90;7.40;;;;;;;13.95;37.95;99465.50;4934171;29;20168;-71
2022/03/30 10:25:43;;;;;;;15.20;7.25;;;;;;;14.11;36.74;99449.84;4932907;29;20465;-71
2022/03/30 10:28:15;;;;;;;15.10;6.57;;;;;;;14.06;37.50;99451.81;4931542;29;20039;-71
2022/03/30 10:30:43;;;;;;;15.93;6.53;;;;;;;14.14;38.62;99447.94;4931839;29;20067;-71
2022/03/30 10:33:10;;;;;;;13.85;5.90;;;;;;;14.27;38.05;99445.69;4934345;29;20047;-71
2022/03/30 10:35:38;;;;;;;11.80;4.85;;;;;;;14.31;37.22;99452.63;4932061;29;20032;-70
2022/03/30 10:38:03;;;;;;;12.38;6.25;;;;;;;14.08;37.55;99449.97;4930552;29;20479;-71
2022/03/30 10:40:29;;;;;;;11.05;4.60;;;;;;;14.09;37.60;99436.63;4932730;29;20027;-71
2022/03/30 10:42:57;;;;;;;16.00;4.53;;;;;;;13.73;37.38;99446.84;4935148;29;20051;-71
2022/03/30 10:45:30;;;;;;;11.50;5.20;;;;;;;13.50;36.97;99442.38;4946372;29;20059;-71
2022/03/30 10:48:05;;;;;;;15.27;4.72;;;;;;;13.52;37.87;99449.34;4935402;29;20414;-71
2022/03/30 10:50:43;;;;;;;17.30;7.13;;;;;;;13.25;37.35;99444.97;4931708;29;20063;-70
2022/03/30 10:53:39;;;;;;;13.90;5.95;;;;;;;13.16;37.97;99443.50;4935360;29;20032;-71
2022/03/30 10:56:07;;;;;;;12.68;5.18;;;;;;;13.38;38.32;99433.06;4923977;29;20550;-71
2022/03/30 10:58:33;;;;;;;12.98;4.50;;;;;;;13.58;38.31;99435.00;4935164;29;20031;-70
2022/03/30 11:01:13;;;;;;;13.35;5.70;;;;;;;13.69;37.99;99435.47;4935476;29;20046;-70
2022/03/30 11:04:05;;;;;;;11.48;5.47;;;;;;;13.91;37.74;99424.06;4933592;29;20509;-70
2022/03/30 11:06:35;;;;;;;14.85;5.18;;;;;;;14.18;37.25;99425.69;4934237;29;20042;-71
2022/03/30 11:09:02;;;;;;;13.50;5.85;;;;;;;14.20;37.40;99420.31;4931007;29;20538;-71
2022/03/30 11:11:39;;;;;;;14.95;5.78;;;;;;;14.08;36.76;99412.84;4935081;29;20106;-71
2022/03/30 11:14:23;;;;;;;11.80;5.43;;;;;;;14.08;36.58;99413.69;4931974;29;20047;-69
2022/03/30 11:16:50;;;;;;;12.27;4.32;;;;;;;14.07;37.76;99411.97;4934524;29;20044;-71
2022/03/30 11:19:15;;;;;;;13.15;5.20;;;;;;;14.24;37.20;99409.53;4934533;29;20038;-71
2022/03/30 11:21:54;;;;;;;16.25;5.47;;;;;;;14.21;36.15;99403.47;4934096;29;20041;-71
2022/03/30 11:24:23;;;;;;;13.20;4.80;;;;;;;13.96;36.75;99401.78;4929336;29;20399;-71
2022/03/30 11:26:48;;;;;;;12.70;4.82;;;;;;;14.07;37.84;99397.81;4933057;29;20050;-70
2022/03/30 11:29:42;;;;;;;15.30;5.32;;;;;;;13.91;36.88;99397.53;4933443;29;20675;-71
2022/03/30 11:32:22;;;;;;;14.70;5.65;;;;;;;13.95;36.94;99393.88;4931555;29;20511;-71
2022/03/30 11:34:55;;;;;;;17.27;7.63;;;;;;;14.10;36.59;99390.63;4933947;29;20047;-70
2022/03/30 11:37:28;;;;;;;13.98;6.55;;;;;;;14.15;37.54;99385.16;4931230;29;20395;-70